Garden City Regional Airport
KGCK : now visible

Airfield :











YOU CAN JOIN US ON...

 
LOGIN :

Register | Disclaimer

   EN    FR    IT 

 









Legend :    VFR   Marginal VFR   IFR   Intensive IFR   Very Intensive IFR
Visi :
Ceiling :
>= 8 km
>= 3000ft
5 to 8 km
1000 to 3000 ft
1500m to 5 km
500 to 1000 ft
800 to 1500m
200 to 500 ft
< 800m
< 200 ft
Symbols :   Thunderstorms  Fog  Heavy snow  Heavy precipitations  Wind > 20 kt






- Airport Elevation : 2891 ft
- IATA code : GCK


KGCK - Garden City Regional

CURRENT METAR :
  • 292254Z 17015G26KT 10SM FEW055 26/12 A3000 RMK AO2 PK WND 15029/2241 SLP134 T02610117

EXPIRED METARs :
  • 292154Z 15017G29KT 10SM FEW055 27/12 A3002 RMK AO2 PK WND 15030/2119 SLP140 T02720117
  • 292054Z 17017G28KT 10SM CLR 26/12 A3005 RMK AO2 PK WND 15028/2048 SLP149 T02610117 56025
  • 291954Z 20016G25KT 10SM CLR 26/12 A3007 RMK AO2 PK WND 17026/1918 SLP159 T02610122
  • 291854Z 15014G24KT 10SM FEW044 24/12 A3010 RMK AO2 PK WND 18026/1756 SLP166 T02440117

TAF KGCK
Valid from the 30 at 00:00 until the 31 at 00:00 UTC


292320Z 3000/3024 16016G25KT P6SM BKN250
FM300400 15013G22KT 3/4SM TSRA BR BKN040CB
FM300500 16012G21KT 4SM BR VCTS OVC020CB
FM300600 16012G21KT P6SM -SHRA OVC070
TEMPO 3006/3009 2SM TSRA BR OVC025CB
FM300900 14012G21KT P6SM -SHRA VCTS BKN090CB
FM301000 15012G20KT P6SM VCTS OVC090CB
KZKC FIR / North America



MET'MAP, your aeronautical weather chart ! - Copyright ORBIFLY December 2007 - Disclaimer

ORBIFLY MET'MAP TEAM :

Programming & Development : Alexandra Zaïnal
Original concept : Baudouin d'Aumeries
Technical & hardware support : Manuel Goepfert
Assistance : Marc-Olivier Méhu




SOURCES & CREDITS :

   NOAA       Earth
Advisory